Archival Weather

Chicago O'Hare International

Chicago, Illinois (KORD)

Report from: Wednesday, September 6, 2023 7:51 PM CDT
Current time: Wednesday, May 29, 2024 6:34 PM CDT

Current weather – Weather history – Daily summaries
Weather forecast

Temperature21.7°C (71.1°F)
Dew point18.3°C (64.9°F)
Winds 9 kts (4.6 m/s, 10.4 mph) West-Southwest (240°)
Visibility8 mi. (12.9 km)
Clouds Ceiling: Broken clouds 1,400 ft. (427 m)
Overcast 3,400 ft. (1,036 m)
Altimeter29.79 in.Hg (1009 mB)
PrecipitiationTrace
Precip. events Rain ended 12:07 AM
Relative humidity81 %
Density altitude1,238 ft. (377 m)
Sea-level pressure100.8 kPa (1008 mB, 29.77 in.Hg)
Remarks Automated weather observing station with precipitation discriminator
Flight conditions Marginal Visual Meteorological Conditions
Raw dataKORD 070051Z 24009KT 8SM BKN014 OVC034 22/18 A2979 RMK AO2 RAE07 SLP082 P0000 T02170183
An error has occurred. This application may no longer respond until reloaded. Reload 🗙